Portland, OR

8:28 AM PST on February 12, 2016 (GMT -0800)
Portland - West Hills | | Change Station
CLOSE
Current Station
Personal Weather Station
Location: Portland, OR
Elevation: 820 ft
Nearby Weather Stations

Elev 820 ft 45.49 °N, 122.69 °W | Updated 19 seconds ago

Overcast
Overcast
51.9 °F
Feels Like 51.9 °F
N
5.0
Wind Variable Wind from South
Gusts 11.0 mph

Today
High -- | Low -- °F
--% Chance of Precip.
Yesterday
High -- | Low -- °F
Precip. -- in
Pressure 30.14 in
Visibility 10.0 miles
Clouds Few 4200 ft
Mostly Cloudy 6000 ft
Overcast 8000 ft
Dew Point 50 °F
Humidity 93%
Rainfall 0.00 in
Snow Depth Not available.
7:17 AM 5:33 PM
Waxing Crescent, 21% visible
METAR KPDX 121553Z 12012KT 10SM FEW042 BKN060 OVC080 11/07 A3014 RMK AO2 SLP207 T01060067
Pressure 30.14 in
Visibility 10.0 miles
Clouds Few 4200 ft
Mostly Cloudy 6000 ft
Overcast 8000 ft
Dew Point 50 °F
Humidity 93%
Rainfall 0.00 in
Snow Depth Not available.
7:17 AM 5:33 PM
Waxing Crescent, 21% visible
METAR KPDX 121553Z 12012KT 10SM FEW042 BKN060 OVC080 11/07 A3014 RMK AO2 SLP207 T01060067

10-Day Weather Forecast

Almanac

Astronomy

Feb. 12, 2016 Rise Set
Actual Time
Civil Twilight
Nautical Twilight
Astronomical Twilight
Moon
Length of Visible Light
Length of Day
Tomorrow will be .
, % of the Moon is Illuminated

Today's Extremes

State Highs State Lows

Community

WunderPhotos

Upload Photos

1,892,350 photos uploaded!

WunderBlog® & News

Nearby

Air Quality

  Air Quality AQ Index Pollutant
Not available.

Snow Depth

Station Depth Elevation

Earthquake Activity

City Distance Mag. Time & Date
Minimum magnitude displayed is 2.5.

Coastal Water Temperatures

Place Temperature

Stations

Nearby Weather Stations

Station Location Temp. Windchill Dew Point Humidity Wind Precip. Elev Updated Type
                   

Watches & Warnings

There are currently no watches in effect.